GOSS

Saint Louis Airport

Saint Louis, Senegal
METAR GOSS 242000Z 24006KT 9999 -RA SCT016 OVC130 26/24 Q1011
Observed Flight Rules
Sep-24 @ 20:00 UTC (an hour ago) Visual Flight Rules
Wind Visibility Clouds Conditions
240° at 6 knots 10,000+ meters
  • Scattered at 1,600' AGL
  • Overcast at 13,000' AGL
  • Light Rain
Temperatures Readings
Current 26°C / 79°F
Dewpoint 24°C / 75°F
Humidity 89%
Altimeter 29.85" Hg
Pressure 1011 hPa
Elevation 4
METAR GOSS 242000Z 24006KT 9999 -RA SCT016 OVC130 26/24 Q1011
Observed Flight Rules
Sep-24 @ 20:00 UTC
(an hour ago)
VFR
Wind Visibility
240° at 6 knots 10,000+ meters
Clouds
  • Scattered at 1,600' AGL
  • Overcast at 13,000' AGL
Conditions
  • Light Rain
Temperature Dewpoint
26°C / 79°F 24°C / 75°F
Humidity Altimeter Pressure
89% 29.85" Hg 1011 hPa